createdAt,value
2019-03-20T00:00:57.006Z,8.43
2019-03-20T00:03:29.664Z,7.90
2019-03-20T00:06:02.331Z,7.33
2019-03-20T00:08:34.983Z,8.03
2019-03-20T00:11:07.631Z,7.93
2019-03-20T00:13:40.284Z,6.90
2019-03-20T00:16:12.935Z,7.87
2019-03-20T00:18:45.956Z,7.73
2019-03-20T00:21:18.587Z,7.33
2019-03-20T00:23:51.315Z,7.13
2019-03-20T00:26:24.004Z,7.07
2019-03-20T00:28:58.823Z,7.60
2019-03-20T00:31:31.472Z,7.13
2019-03-20T00:34:04.162Z,6.07
2019-03-20T00:36:36.804Z,7.50
2019-03-20T00:39:09.451Z,6.90
2019-03-20T00:41:42.100Z,6.40
2019-03-20T00:44:14.775Z,6.63
2019-03-20T00:46:47.459Z,7.17
2019-03-20T00:49:20.136Z,6.90
2019-03-20T00:51:52.799Z,6.80
2019-03-20T00:54:25.454Z,7.30
2019-03-20T00:56:58.125Z,7.33
2019-03-20T00:59:30.795Z,6.50
2019-03-20T01:02:03.451Z,6.60
2019-03-20T01:04:36.119Z,6.80
2019-03-20T01:07:10.224Z,7.20
2019-03-20T01:09:43.030Z,7.30
2019-03-20T01:12:17.634Z,7.20
2019-03-20T01:14:50.416Z,7.20
2019-03-20T01:17:23.074Z,7.60
2019-03-20T01:19:55.723Z,6.37
2019-03-20T01:22:28.378Z,6.87
2019-03-20T01:25:01.040Z,6.20
2019-03-20T01:27:33.719Z,6.73
2019-03-20T01:30:07.331Z,7.47
2019-03-20T01:32:39.992Z,6.83
2019-03-20T01:35:23.322Z,6.43
2019-03-20T01:37:47.036Z,7.10
2019-03-20T01:40:19.711Z,6.67
2019-03-20T01:42:52.370Z,7.37
2019-03-20T01:45:25.079Z,6.67
2019-03-20T01:47:57.760Z,7.17
2019-03-20T01:50:30.447Z,7.47
2019-03-20T01:53:03.154Z,6.70
2019-03-20T01:55:35.859Z,6.47
2019-03-20T01:58:08.523Z,7.13
2019-03-20T02:00:41.166Z,6.80
2019-03-20T02:03:13.803Z,7.10
2019-03-20T02:05:46.467Z,7.10
2019-03-20T02:08:19.107Z,6.80
2019-03-20T02:10:51.763Z,6.47
2019-03-20T02:13:24.412Z,7.23
2019-03-20T02:15:57.087Z,7.07
2019-03-20T02:18:29.731Z,7.50
2019-03-20T02:21:02.788Z,6.60
2019-03-20T02:23:35.431Z,6.40
2019-03-20T02:26:08.120Z,6.77
2019-03-20T02:28:40.761Z,6.70
2019-03-20T02:31:13.508Z,7.07
2019-03-20T02:33:47.016Z,7.17
2019-03-20T02:36:19.683Z,6.43
2019-03-20T02:38:52.327Z,7.30
2019-03-20T02:41:24.992Z,6.40
2019-03-20T02:43:57.662Z,7.10
2019-03-20T02:46:30.316Z,6.87
2019-03-20T02:49:03.052Z,6.93
2019-03-20T02:51:35.990Z,6.90
2019-03-20T02:54:08.637Z,6.77
2019-03-20T02:56:41.308Z,7.23
2019-03-20T02:59:13.948Z,7.80
2019-03-20T03:01:46.621Z,7.60
2019-03-20T03:04:19.277Z,7.13
2019-03-20T03:06:51.952Z,7.40
2019-03-20T03:09:24.612Z,7.10
2019-03-20T03:11:57.303Z,8.07
2019-03-20T03:14:29.942Z,8.53
2019-03-20T03:17:02.607Z,7.80
2019-03-20T03:19:35.268Z,7.40
2019-03-20T03:22:07.928Z,7.73
2019-03-20T03:24:40.578Z,8.17
2019-03-20T03:27:13.258Z,7.50
2019-03-20T03:29:45.913Z,7.60
2019-03-20T03:32:18.826Z,8.00
2019-03-20T03:34:51.537Z,8.10
2019-03-20T03:37:24.201Z,7.80
2019-03-20T03:39:56.928Z,7.63
2019-03-20T03:42:29.649Z,8.03
2019-03-20T03:45:02.370Z,7.63
2019-03-20T03:47:35.041Z,7.50
2019-03-20T03:50:07.734Z,7.63
2019-03-20T03:52:40.515Z,8.13
2019-03-20T03:55:13.169Z,7.37
2019-03-20T03:57:45.851Z,7.97
2019-03-20T04:00:18.510Z,8.20
2019-03-20T04:02:51.151Z,7.80
2019-03-20T04:05:23.802Z,8.10
2019-03-20T04:07:56.478Z,7.63
2019-03-20T04:10:29.136Z,7.77
2019-03-20T04:13:01.795Z,7.20
2019-03-20T04:15:36.437Z,8.73
2019-03-20T04:18:08.869Z,7.97
2019-03-20T04:20:41.514Z,8.20
2019-03-20T04:23:14.167Z,7.90
2019-03-20T04:25:46.839Z,7.80
2019-03-20T04:28:19.572Z,7.40
2019-03-20T04:30:52.291Z,7.90
2019-03-20T04:33:25.060Z,7.57
2019-03-20T04:35:57.720Z,7.97
2019-03-20T04:38:30.550Z,7.73
2019-03-20T04:41:03.202Z,7.67
2019-03-20T04:43:35.870Z,7.90
2019-03-20T04:46:08.855Z,7.67
2019-03-20T04:48:41.534Z,8.33
2019-03-20T04:51:14.183Z,7.70
2019-03-20T04:53:46.876Z,8.47
2019-03-20T04:56:19.535Z,7.63
2019-03-20T04:58:52.212Z,8.43
2019-03-20T05:01:24.875Z,8.00
2019-03-20T05:03:57.530Z,8.47
2019-03-20T05:06:30.185Z,8.53
2019-03-20T05:09:03.650Z,8.23
2019-03-20T05:11:36.295Z,7.83
2019-03-20T05:14:08.975Z,7.60
2019-03-20T05:16:41.623Z,8.53
2019-03-20T05:19:14.282Z,8.27
2019-03-20T05:21:46.951Z,8.50
2019-03-20T05:24:19.620Z,8.10
2019-03-20T05:26:52.297Z,8.10
2019-03-20T05:29:24.955Z,8.17
2019-03-20T05:31:57.583Z,8.10
2019-03-20T05:34:30.255Z,8.07
2019-03-20T05:37:10.169Z,8.50
2019-03-20T05:39:37.312Z,8.57
2019-03-20T05:42:09.962Z,7.87
2019-03-20T05:44:42.639Z,7.63
2019-03-20T05:47:15.298Z,8.53
2019-03-20T05:49:48.086Z,7.60
2019-03-20T05:52:20.745Z,7.67
2019-03-20T05:54:53.400Z,8.33
2019-03-20T05:57:26.058Z,8.27
2019-03-20T05:59:58.711Z,8.70
2019-03-20T06:02:31.369Z,7.80
2019-03-20T06:05:04.535Z,7.47
2019-03-20T06:07:37.176Z,7.90
2019-03-20T06:10:11.008Z,7.80
2019-03-20T06:12:43.655Z,7.40
2019-03-20T06:15:16.321Z,7.47
2019-03-20T06:17:48.979Z,7.83
2019-03-20T06:20:21.660Z,8.03
2019-03-20T06:22:54.302Z,8.30
2019-03-20T06:25:26.960Z,8.10
2019-03-20T06:27:59.636Z,7.63
2019-03-20T06:30:32.319Z,7.67
2019-03-20T06:33:05.000Z,7.57
2019-03-20T06:35:37.687Z,6.90
2019-03-20T06:38:10.348Z,6.93
2019-03-20T06:40:43.006Z,6.37
2019-03-20T06:43:15.676Z,6.20
2019-03-20T06:45:48.339Z,6.03
2019-03-20T06:48:20.991Z,5.57
2019-03-20T06:50:53.673Z,6.10
2019-03-20T06:53:26.363Z,5.97
2019-03-20T06:55:59.083Z,5.80
2019-03-20T06:58:31.726Z,5.83
2019-03-20T07:01:12.310Z,5.87
2019-03-20T07:04:31.569Z,5.93
2019-03-20T07:07:24.031Z,5.97
2019-03-20T07:10:27.438Z,5.93
2019-03-20T07:13:00.109Z,6.60
2019-03-20T07:15:32.772Z,6.20
2019-03-20T07:18:05.427Z,6.30
2019-03-20T07:20:38.122Z,6.63
2019-03-20T07:23:10.787Z,6.37
2019-03-20T07:25:43.455Z,6.40
2019-03-20T07:28:16.199Z,6.50
2019-03-20T07:30:48.855Z,6.63
2019-03-20T07:33:21.509Z,6.90
2019-03-20T07:35:54.213Z,7.00
2019-03-20T07:38:27.707Z,7.00
2019-03-20T07:41:00.380Z,7.37
2019-03-20T07:43:33.040Z,7.37
2019-03-20T07:46:05.695Z,7.03
2019-03-20T07:48:40.593Z,6.20
2019-03-20T07:51:12.765Z,6.90
2019-03-20T07:53:45.465Z,6.83
2019-03-20T07:56:18.138Z,6.40
2019-03-20T07:58:50.800Z,6.77
2019-03-20T08:01:23.453Z,6.90
2019-03-20T08:03:56.121Z,6.37
2019-03-20T08:06:28.797Z,6.60
2019-03-20T08:09:01.454Z,6.70
2019-03-20T08:11:34.114Z,7.03
2019-03-20T08:14:06.766Z,6.67
2019-03-20T08:16:39.411Z,6.50
2019-03-20T08:19:12.085Z,6.80
2019-03-20T08:21:44.743Z,6.30
2019-03-20T08:24:17.399Z,6.10
2019-03-20T08:26:50.065Z,6.03
2019-03-20T08:29:22.720Z,6.90
2019-03-20T08:31:55.371Z,6.27
2019-03-20T08:34:28.039Z,6.60
2019-03-20T08:37:02.416Z,6.80
2019-03-20T08:39:35.087Z,6.70
2019-03-20T08:42:07.750Z,7.27
2019-03-20T08:44:40.414Z,6.80
2019-03-20T08:47:13.127Z,7.00
2019-03-20T08:49:45.794Z,6.27
2019-03-20T08:52:18.608Z,6.43
2019-03-20T08:54:51.304Z,6.67
2019-03-20T08:57:23.959Z,5.83
2019-03-20T08:59:56.632Z,5.90
2019-03-20T09:02:29.279Z,6.50
2019-03-20T09:05:01.984Z,5.80
2019-03-20T09:07:34.791Z,7.17
2019-03-20T09:10:10.295Z,6.80
2019-03-20T09:12:42.980Z,7.33
2019-03-20T09:15:15.723Z,6.70
2019-03-20T09:17:48.387Z,6.70
2019-03-20T09:20:21.061Z,6.40
2019-03-20T09:22:53.904Z,5.90
2019-03-20T09:25:26.544Z,5.83
2019-03-20T09:27:59.265Z,6.13
2019-03-20T09:30:32.089Z,6.40
2019-03-20T09:33:04.825Z,5.90
2019-03-20T09:35:37.488Z,5.23
2019-03-20T09:38:10.226Z,5.50
2019-03-20T09:40:42.896Z,5.70
2019-03-20T09:43:15.535Z,5.97
2019-03-20T09:45:48.201Z,5.23
2019-03-20T09:48:20.858Z,5.70
2019-03-20T09:50:53.514Z,5.50
2019-03-20T09:53:26.177Z,5.63
2019-03-20T09:55:58.835Z,5.30
2019-03-20T09:58:31.489Z,6.40
2019-03-20T10:01:04.159Z,5.97
2019-03-20T10:03:36.809Z,6.00
2019-03-20T10:06:09.473Z,5.77
2019-03-20T10:08:42.121Z,5.73
2019-03-20T10:11:14.787Z,5.87
2019-03-20T10:13:47.432Z,5.73
2019-03-20T10:16:20.086Z,7.17
2019-03-20T10:18:52.756Z,5.97
2019-03-20T10:21:25.423Z,6.57
2019-03-20T10:23:58.070Z,6.50
2019-03-20T10:26:30.767Z,6.70
2019-03-20T10:29:03.433Z,6.13
2019-03-20T10:31:36.086Z,6.53
2019-03-20T10:34:08.747Z,5.87
2019-03-20T10:36:41.500Z,5.73
2019-03-20T10:39:14.257Z,6.33
2019-03-20T10:41:46.986Z,6.27
2019-03-20T10:44:19.635Z,6.13
2019-03-20T10:46:52.317Z,6.20
2019-03-20T10:49:27.389Z,6.37
2019-03-20T10:52:00.092Z,5.87
2019-03-20T10:54:32.781Z,6.50
2019-03-20T10:57:05.485Z,6.00
2019-03-20T10:59:38.220Z,6.30
2019-03-20T11:02:14.606Z,6.80
2019-03-20T11:04:47.034Z,6.33
2019-03-20T11:07:19.695Z,6.60
2019-03-20T11:09:52.354Z,5.83
2019-03-20T11:12:25.031Z,6.73
2019-03-20T11:14:57.668Z,6.63
2019-03-20T11:17:30.333Z,6.23
2019-03-20T11:20:03.393Z,7.30
2019-03-20T11:22:36.127Z,6.63
2019-03-20T11:25:09.719Z,5.70
2019-03-20T11:27:42.415Z,6.37
2019-03-20T11:30:19.939Z,6.37
2019-03-20T11:32:52.640Z,6.37
2019-03-20T11:35:25.279Z,6.50
2019-03-20T11:37:57.963Z,6.07
2019-03-20T11:40:30.672Z,6.13
2019-03-20T11:43:03.355Z,6.50
2019-03-20T11:45:36.018Z,6.33
2019-03-20T11:48:08.690Z,7.10
2019-03-20T11:50:41.434Z,7.20
2019-03-20T11:53:14.157Z,6.77
2019-03-20T11:55:46.806Z,7.77
2019-03-20T11:58:19.470Z,7.37
2019-03-20T12:00:52.121Z,6.57
2019-03-20T12:03:24.857Z,6.83
2019-03-20T12:05:57.510Z,6.63
2019-03-20T12:08:30.211Z,6.77
2019-03-20T12:11:02.905Z,6.43
2019-03-20T12:13:35.569Z,7.23
2019-03-20T12:16:08.226Z,6.53
2019-03-20T12:18:40.883Z,6.37
2019-03-20T12:21:13.551Z,5.93
2019-03-20T12:23:46.219Z,6.07
2019-03-20T12:26:18.969Z,5.93
2019-03-20T12:28:51.641Z,5.70
2019-03-20T12:31:24.310Z,6.30
2019-03-20T12:33:56.971Z,6.73
2019-03-20T12:36:29.641Z,5.93
2019-03-20T12:39:02.593Z,6.37
2019-03-20T12:41:35.276Z,5.83
2019-03-20T12:44:07.961Z,5.77
2019-03-20T12:46:41.821Z,6.43
2019-03-20T12:49:14.815Z,5.87
2019-03-20T12:51:47.471Z,6.10
2019-03-20T12:54:20.168Z,5.17
2019-03-20T12:56:52.819Z,5.47
2019-03-20T12:59:25.496Z,4.53
2019-03-20T13:01:58.162Z,5.43
2019-03-20T13:04:30.836Z,4.97
2019-03-20T13:07:03.497Z,4.83
2019-03-20T13:09:36.175Z,4.87
2019-03-20T13:12:08.834Z,4.83
2019-03-20T13:14:41.555Z,5.37
2019-03-20T13:17:14.272Z,4.87
2019-03-20T13:19:47.215Z,4.37
2019-03-20T13:22:19.912Z,3.83
2019-03-20T13:24:52.580Z,4.00
2019-03-20T13:27:25.269Z,3.93
2019-03-20T13:29:57.938Z,3.27
2019-03-20T13:32:30.599Z,3.50
2019-03-20T13:35:03.467Z,2.73
2019-03-20T13:37:36.147Z,2.80
2019-03-20T13:40:14.242Z,2.90
2019-03-20T13:42:43.289Z,2.70
2019-03-20T13:45:16.139Z,2.70
2019-03-20T13:47:48.903Z,3.13
2019-03-20T13:50:21.567Z,3.17
2019-03-20T13:52:54.256Z,3.13
2019-03-20T13:55:27.054Z,3.27
2019-03-20T13:57:59.742Z,2.93
2019-03-20T14:00:32.476Z,3.57
2019-03-20T14:03:05.200Z,4.07
2019-03-20T14:05:37.984Z,3.40
2019-03-20T14:08:10.768Z,3.50
2019-03-20T14:10:50.467Z,2.83
2019-03-20T14:13:17.831Z,2.87
2019-03-20T14:15:50.632Z,3.27
2019-03-20T14:18:23.357Z,2.93
2019-03-20T14:20:56.055Z,3.07
2019-03-20T14:23:28.812Z,3.37
2019-03-20T14:26:01.642Z,3.37
2019-03-20T14:28:34.362Z,3.20
2019-03-20T14:31:07.126Z,3.20
2019-03-20T14:33:39.826Z,3.00
2019-03-20T14:36:12.599Z,3.53
2019-03-20T14:38:45.279Z,3.10
2019-03-20T14:41:21.769Z,3.00
2019-03-20T14:43:52.341Z,2.77
2019-03-20T14:46:25.019Z,2.80
2019-03-20T14:48:57.700Z,2.70
2019-03-20T14:51:30.355Z,2.57
2019-03-20T14:54:03.012Z,2.93
2019-03-20T14:56:35.692Z,3.10
2019-03-20T14:59:08.361Z,2.60
2019-03-20T15:01:41.085Z,2.37
2019-03-20T15:04:13.750Z,3.10
2019-03-20T15:06:46.428Z,3.90
2019-03-20T15:09:18.831Z,5.53
2019-03-20T15:11:51.535Z,3.93
2019-03-20T15:14:24.231Z,2.90
2019-03-20T15:16:56.903Z,2.77
2019-03-20T15:19:29.279Z,3.00
2019-03-20T15:22:01.992Z,3.00
2019-03-20T15:24:34.667Z,3.00
2019-03-20T15:27:07.353Z,2.87
2019-03-20T15:29:40.039Z,3.30
2019-03-20T15:32:12.832Z,2.80
2019-03-20T15:34:45.606Z,3.27
2019-03-20T15:37:18.286Z,2.70
2019-03-20T15:39:51.036Z,3.10
2019-03-20T15:42:23.775Z,3.30
2019-03-20T15:44:56.439Z,3.00
2019-03-20T15:47:29.345Z,2.80
2019-03-20T15:50:02.143Z,3.47
2019-03-20T15:52:34.923Z,3.20
2019-03-20T15:55:10.113Z,3.27
2019-03-20T15:57:42.839Z,3.30
2019-03-20T16:00:16.671Z,2.97
2019-03-20T16:02:50.313Z,2.93
2019-03-20T16:05:23.186Z,3.00
2019-03-20T16:07:55.935Z,3.33
2019-03-20T16:10:28.582Z,2.77
2019-03-20T16:13:01.250Z,3.20
2019-03-20T16:15:33.919Z,3.07
2019-03-20T16:18:06.581Z,3.50
2019-03-20T16:20:39.299Z,2.87
2019-03-20T16:23:12.715Z,2.57
2019-03-20T16:25:45.420Z,2.97
2019-03-20T16:28:18.125Z,2.87
2019-03-20T16:30:50.841Z,2.93
2019-03-20T16:33:23.511Z,2.97
2019-03-20T16:35:56.177Z,2.23
2019-03-20T16:38:28.863Z,2.60
2019-03-20T16:41:01.529Z,2.50
2019-03-20T16:43:34.186Z,2.93
2019-03-20T16:46:06.842Z,3.30
2019-03-20T16:48:39.510Z,2.87
2019-03-20T16:51:12.168Z,3.20
2019-03-20T16:53:44.839Z,2.57
2019-03-20T16:56:17.568Z,2.70
2019-03-20T16:58:50.322Z,2.90
2019-03-20T17:01:22.970Z,2.90
2019-03-20T17:03:55.650Z,2.87
2019-03-20T17:06:28.332Z,2.60
2019-03-20T17:09:01.012Z,3.60
2019-03-20T17:11:38.279Z,3.60
2019-03-20T17:14:08.070Z,3.00
2019-03-20T17:16:42.675Z,3.30
2019-03-20T17:19:15.121Z,3.00
2019-03-20T17:21:47.802Z,3.70
2019-03-20T17:24:20.486Z,3.53
2019-03-20T17:26:53.160Z,3.40
2019-03-20T17:29:25.827Z,2.87
2019-03-20T17:31:58.596Z,3.60
2019-03-20T17:34:31.339Z,3.70
2019-03-20T17:37:04.027Z,3.73
2019-03-20T17:39:36.694Z,3.77
2019-03-20T17:42:09.354Z,4.20
2019-03-20T17:44:42.027Z,3.70
2019-03-20T17:47:14.689Z,3.83
2019-03-20T17:49:47.378Z,3.50
2019-03-20T17:52:20.047Z,4.40
2019-03-20T17:54:52.727Z,4.40
2019-03-20T17:57:25.383Z,4.37
2019-03-20T17:59:58.046Z,4.40
2019-03-20T18:02:30.706Z,4.40
2019-03-20T18:05:03.812Z,5.07
2019-03-20T18:07:36.545Z,4.67
2019-03-20T18:10:09.246Z,4.33
2019-03-20T18:12:41.987Z,3.93
2019-03-20T18:15:14.705Z,3.93
2019-03-20T18:17:47.464Z,3.90
2019-03-20T18:20:20.153Z,3.83
2019-03-20T18:22:52.800Z,4.10
2019-03-20T18:25:25.473Z,4.20
2019-03-20T18:27:58.191Z,4.30
2019-03-20T18:30:30.905Z,4.50
2019-03-20T18:33:03.601Z,5.03
2019-03-20T18:35:36.262Z,5.47
2019-03-20T18:38:08.919Z,5.77
2019-03-20T18:40:41.639Z,5.00
2019-03-20T18:43:14.311Z,4.70
2019-03-20T18:45:47.046Z,4.93
2019-03-20T18:48:19.704Z,5.00
2019-03-20T18:50:52.354Z,5.63
2019-03-20T18:53:26.300Z,5.27
2019-03-20T18:55:58.999Z,5.37
2019-03-20T18:58:31.659Z,5.60
2019-03-20T19:01:04.370Z,6.20
2019-03-20T19:03:39.549Z,5.60
2019-03-20T19:06:15.832Z,5.40
2019-03-20T19:08:48.688Z,5.63
2019-03-20T19:11:21.550Z,5.57
2019-03-20T19:13:54.267Z,5.23
2019-03-20T19:16:26.920Z,5.53
2019-03-20T19:18:59.689Z,6.10
2019-03-20T19:21:32.363Z,5.17
2019-03-20T19:24:05.043Z,5.90
2019-03-20T19:26:37.792Z,5.83
2019-03-20T19:29:10.475Z,5.30
2019-03-20T19:31:43.136Z,5.10
2019-03-20T19:34:15.927Z,4.80
2019-03-20T19:36:48.635Z,5.10
2019-03-20T19:39:21.289Z,4.83
2019-03-20T19:41:53.980Z,5.53
2019-03-20T19:44:26.618Z,5.17
2019-03-20T19:46:59.395Z,5.50
2019-03-20T19:49:32.079Z,7.03
2019-03-20T19:52:04.777Z,7.13
2019-03-20T19:54:37.441Z,6.40
2019-03-20T19:57:10.151Z,6.60
2019-03-20T19:59:42.833Z,6.37
2019-03-20T20:02:15.768Z,6.50
2019-03-20T20:04:48.438Z,6.53
2019-03-20T20:07:21.177Z,7.10
2019-03-20T20:09:53.970Z,6.27
2019-03-20T20:12:31.179Z,5.93
2019-03-20T20:15:01.091Z,6.97
2019-03-20T20:17:33.739Z,6.77
2019-03-20T20:20:08.466Z,6.87
2019-03-20T20:22:41.147Z,7.07
2019-03-20T20:25:13.809Z,6.63
2019-03-20T20:27:46.506Z,6.53
2019-03-20T20:30:19.182Z,6.57
2019-03-20T20:32:51.836Z,6.60
2019-03-20T20:35:24.583Z,6.70
2019-03-20T20:37:57.255Z,6.70
2019-03-20T20:40:29.928Z,6.87
2019-03-20T20:43:02.603Z,7.47
2019-03-20T20:45:35.281Z,8.20
2019-03-20T20:48:07.957Z,8.90
2019-03-20T20:50:40.588Z,7.40
2019-03-20T20:53:13.258Z,8.83
2019-03-20T20:55:46.073Z,8.37
2019-03-20T20:58:18.756Z,9.67
2019-03-20T21:00:51.423Z,10.50
2019-03-20T21:03:24.237Z,9.27
2019-03-20T21:05:56.992Z,9.77
2019-03-20T21:08:29.662Z,9.57
2019-03-20T21:11:02.320Z,9.27
2019-03-20T21:13:35.064Z,9.33
2019-03-20T21:16:08.254Z,9.93
2019-03-20T21:19:30.399Z,9.60
2019-03-20T21:22:41.711Z,10.07
2019-03-20T21:25:20.035Z,8.70
2019-03-20T21:28:49.142Z,9.40
2019-03-20T21:31:26.330Z,9.53
2019-03-20T21:34:35.760Z,9.47
2019-03-20T21:37:45.998Z,8.40
2019-03-20T21:40:20.455Z,9.57
2019-03-20T21:43:29.596Z,10.20
2019-03-20T21:46:52.629Z,9.23
2019-03-20T21:49:25.910Z,9.70
2019-03-20T21:51:59.103Z,10.30
2019-03-20T21:55:28.555Z,9.67
2019-03-20T21:58:10.356Z,8.87
2019-03-20T22:01:19.620Z,9.57
2019-03-20T22:03:52.823Z,10.30
2019-03-20T22:07:06.984Z,11.13
2019-03-20T22:10:32.341Z,10.87
2019-03-20T22:13:19.276Z,11.63
2019-03-20T22:16:38.900Z,10.90
2019-03-20T22:19:34.312Z,11.07
2019-03-20T22:22:50.902Z,11.03
2019-03-20T22:25:41.303Z,11.97
2019-03-20T22:28:58.419Z,12.17
2019-03-20T22:31:32.851Z,12.50
2019-03-20T22:34:33.165Z,12.10
2019-03-20T22:37:06.379Z,11.40
2019-03-20T22:40:35.825Z,11.40
2019-03-20T22:43:29.243Z,10.67
2019-03-20T22:46:54.963Z,11.10
2019-03-20T22:49:52.278Z,10.03
2019-03-20T22:52:39.394Z,12.17
2019-03-20T22:55:49.722Z,11.87
2019-03-20T22:58:46.763Z,11.03
2019-03-20T23:01:36.527Z,10.60
2019-03-20T23:04:19.654Z,9.53
2019-03-20T23:06:52.851Z,10.50
2019-03-20T23:09:26.039Z,9.90
2019-03-20T23:12:01.066Z,9.70
2019-03-20T23:14:34.271Z,9.63
2019-03-20T23:17:07.522Z,9.23
2019-03-20T23:19:42.043Z,9.23
2019-03-20T23:22:15.327Z,9.37
2019-03-20T23:24:48.699Z,9.33
2019-03-20T23:27:27.575Z,8.40
2019-03-20T23:30:01.487Z,8.37
2019-03-20T23:32:34.713Z,9.10
2019-03-20T23:35:08.022Z,8.50
2019-03-20T23:37:41.480Z,9.10
2019-03-20T23:40:14.935Z,8.50
2019-03-20T23:42:48.190Z,8.70
2019-03-20T23:45:21.403Z,8.80
2019-03-20T23:47:58.023Z,8.60
2019-03-20T23:50:31.211Z,8.10
2019-03-20T23:53:04.412Z,8.57
2019-03-20T23:55:37.638Z,8.83
2019-03-20T23:58:10.893Z,8.23
